createdAt,value
2022-12-15T00:02:13.314Z,-4.86
2022-12-15T00:04:58.271Z,-4.93
2022-12-15T00:07:43.079Z,-4.93
2022-12-15T00:10:28.043Z,-4.94
2022-12-15T00:13:12.772Z,-5.22
2022-12-15T00:15:57.802Z,-5.05
2022-12-15T00:18:42.902Z,-5.08
2022-12-15T00:21:28.334Z,-5.08
2022-12-15T00:24:13.850Z,-5.11
2022-12-15T00:26:59.474Z,-5.12
2022-12-15T00:29:44.606Z,-5.08
2022-12-15T00:32:29.416Z,-5.28
2022-12-15T00:35:14.484Z,-5.20
2022-12-15T00:37:59.168Z,-4.99
2022-12-15T00:40:26.131Z,-4.96
2022-12-15T00:42:52.651Z,-4.98
2022-12-15T00:45:19.081Z,-5.02
2022-12-15T00:47:45.584Z,-5.07
2022-12-15T00:50:30.613Z,-5.08
2022-12-15T00:53:15.566Z,-5.09
2022-12-15T00:56:00.721Z,-5.13
2022-12-15T00:58:45.540Z,-5.09
2022-12-15T01:01:30.625Z,-5.16
2022-12-15T01:04:15.766Z,-5.17
2022-12-15T01:07:00.964Z,-5.12
2022-12-15T01:09:46.334Z,-5.14
2022-12-15T01:12:31.274Z,-5.10
2022-12-15T01:15:16.626Z,-5.02
2022-12-15T01:18:01.762Z,-5.00
2022-12-15T01:20:32.766Z,-5.00
2022-12-15T01:22:59.610Z,-5.04
2022-12-15T01:25:26.335Z,-5.21
2022-12-15T01:27:56.023Z,-5.02
2022-12-15T01:30:25.365Z,-4.97
2022-12-15T01:32:52.301Z,-5.07
2022-12-15T01:35:20.252Z,-5.08
2022-12-15T01:37:46.777Z,-5.33
2022-12-15T01:40:37.777Z,-5.15
2022-12-15T01:43:09.618Z,-5.20
2022-12-15T01:45:53.048Z,-5.20
2022-12-15T01:48:26.335Z,-5.23
2022-12-15T01:51:02.475Z,-5.30
2022-12-15T01:53:34.897Z,-5.32
2022-12-15T01:56:03.909Z,-5.30
2022-12-15T01:58:31.213Z,-5.33
2022-12-15T02:00:58.450Z,-5.28
2022-12-15T02:03:25.473Z,-5.23
2022-12-15T02:05:53.119Z,-5.21
2022-12-15T02:08:19.805Z,-5.37
2022-12-15T02:11:18.745Z,-5.20
2022-12-15T02:13:59.829Z,-5.17
2022-12-15T02:16:26.442Z,-5.16
2022-12-15T02:19:04.754Z,-5.23
2022-12-15T02:21:50.110Z,-5.24
2022-12-15T02:24:30.519Z,-5.26
2022-12-15T02:27:13.595Z,-5.27
2022-12-15T02:30:17.998Z,-5.28
2022-12-15T02:32:57.049Z,-5.51
2022-12-15T02:35:40.930Z,-5.52
2022-12-15T02:38:09.451Z,-5.50
2022-12-15T02:40:37.206Z,-5.32
2022-12-15T02:43:06.138Z,-5.33
2022-12-15T02:46:17.030Z,-5.39
2022-12-15T02:48:51.425Z,-5.38
2022-12-15T02:51:20.951Z,-5.40
2022-12-15T02:54:14.567Z,-5.45
2022-12-15T02:57:06.172Z,-5.46
2022-12-15T03:00:10.735Z,-5.46
2022-12-15T03:02:41.914Z,-5.46
2022-12-15T03:05:09.522Z,-5.52
2022-12-15T03:07:36.063Z,-5.57
2022-12-15T03:10:07.192Z,-5.64
2022-12-15T03:12:33.755Z,-5.53
2022-12-15T03:15:00.202Z,-5.52
2022-12-15T03:17:26.789Z,-5.67
2022-12-15T03:19:53.310Z,-5.55
2022-12-15T03:22:20.140Z,-5.50
2022-12-15T03:24:46.705Z,-5.74
2022-12-15T03:27:13.239Z,-5.65
2022-12-15T03:29:40.113Z,-5.71
2022-12-15T03:32:06.903Z,-5.72
2022-12-15T03:34:33.411Z,-5.62
2022-12-15T03:36:59.912Z,-5.81
2022-12-15T03:39:26.616Z,-5.65
2022-12-15T03:41:53.114Z,-5.65
2022-12-15T03:44:19.621Z,-5.65
2022-12-15T03:46:46.139Z,-5.67
2022-12-15T03:49:12.638Z,-5.71
2022-12-15T03:51:39.130Z,-5.77
2022-12-15T03:54:06.103Z,-5.81
2022-12-15T03:56:34.788Z,-5.86
2022-12-15T03:59:02.305Z,-5.99
2022-12-15T04:01:34.287Z,-5.89
2022-12-15T04:04:02.343Z,-5.91
2022-12-15T04:06:30.044Z,-5.99
2022-12-15T04:08:56.654Z,-6.00
2022-12-15T04:11:23.242Z,-5.97
2022-12-15T04:13:50.949Z,-5.96
2022-12-15T04:16:20.167Z,-5.97
2022-12-15T04:19:07.570Z,-5.96
2022-12-15T04:21:34.115Z,-5.99
2022-12-15T04:24:19.046Z,-5.96
2022-12-15T04:27:03.803Z,-6.08
2022-12-15T04:29:48.754Z,-6.12
2022-12-15T04:32:34.179Z,-5.91
2022-12-15T04:35:19.512Z,-6.09
2022-12-15T04:38:04.872Z,-5.95
2022-12-15T04:40:50.110Z,-6.07
2022-12-15T04:43:35.188Z,-5.93
2022-12-15T04:46:20.071Z,-5.90
2022-12-15T04:49:05.302Z,-5.85
2022-12-15T04:51:52.055Z,-5.92
2022-12-15T04:54:36.943Z,-6.00
2022-12-15T04:57:22.275Z,-6.08
2022-12-15T05:00:07.202Z,-6.13
2022-12-15T05:02:52.141Z,-6.19
2022-12-15T05:05:37.283Z,-6.39
2022-12-15T05:08:22.805Z,-6.25
2022-12-15T05:11:07.647Z,-6.23
2022-12-15T05:13:52.483Z,-6.17
2022-12-15T05:16:37.382Z,-6.25
2022-12-15T05:19:22.374Z,-6.16
2022-12-15T05:22:07.239Z,-5.94
2022-12-15T05:24:52.012Z,-5.87
2022-12-15T05:27:37.107Z,-5.81
2022-12-15T05:30:22.874Z,-5.70
2022-12-15T05:32:49.949Z,-5.63
2022-12-15T05:35:16.527Z,-5.55
2022-12-15T05:37:43.105Z,-5.56
2022-12-15T05:40:10.179Z,-5.49
2022-12-15T05:42:36.707Z,-5.43
2022-12-15T05:45:05.510Z,-5.34
2022-12-15T05:47:32.024Z,-5.24
2022-12-15T05:49:58.783Z,-5.13
2022-12-15T05:52:25.684Z,-5.15
2022-12-15T05:54:52.436Z,-4.95
2022-12-15T05:57:21.081Z,-4.86
2022-12-15T05:59:47.610Z,-4.77
2022-12-15T06:02:14.136Z,-4.65
2022-12-15T06:04:41.000Z,-4.63
2022-12-15T06:07:07.548Z,-4.54
2022-12-15T06:09:34.047Z,-4.49
2022-12-15T06:12:00.567Z,-4.44
2022-12-15T06:14:27.009Z,-4.44
2022-12-15T06:16:53.629Z,-4.41
2022-12-15T06:19:21.020Z,-4.53
2022-12-15T06:21:47.737Z,-4.35
2022-12-15T06:24:14.340Z,-4.27
2022-12-15T06:26:41.063Z,-4.20
2022-12-15T06:29:10.022Z,-4.25
2022-12-15T06:31:37.567Z,-4.18
2022-12-15T06:34:06.158Z,-4.32
2022-12-15T06:36:32.677Z,-4.32
2022-12-15T06:39:01.503Z,-4.29
2022-12-15T06:41:32.640Z,-4.27
2022-12-15T06:44:00.362Z,-4.27
2022-12-15T06:46:29.252Z,-4.22
2022-12-15T06:48:56.163Z,-4.19
2022-12-15T06:51:23.126Z,-4.20
2022-12-15T06:53:50.819Z,-4.17
2022-12-15T06:56:23.326Z,-4.14
2022-12-15T06:58:55.051Z,-4.08
2022-12-15T07:01:23.653Z,-4.02
2022-12-15T07:03:51.223Z,-4.01
2022-12-15T07:06:18.319Z,-3.96
2022-12-15T07:08:52.224Z,-3.96
2022-12-15T07:11:20.795Z,-3.99
2022-12-15T07:13:54.109Z,-4.02
2022-12-15T07:16:22.799Z,-4.01
2022-12-15T07:18:49.937Z,-4.11
2022-12-15T07:21:17.207Z,-3.94
2022-12-15T07:24:00.518Z,-3.95
2022-12-15T07:26:27.968Z,-3.93
2022-12-15T07:28:54.871Z,-3.90
2022-12-15T07:31:22.624Z,-3.85
2022-12-15T07:33:52.599Z,-3.82
2022-12-15T07:36:19.458Z,-3.98
2022-12-15T07:38:50.299Z,-3.97
2022-12-15T07:41:18.096Z,-3.96
2022-12-15T07:43:45.494Z,-3.98
2022-12-15T07:46:12.139Z,-3.98
2022-12-15T07:48:38.687Z,-3.86
2022-12-15T07:51:10.842Z,-3.75
2022-12-15T07:53:40.182Z,-3.70
2022-12-15T07:56:09.660Z,-3.73
2022-12-15T07:58:37.834Z,-3.30
2022-12-15T08:01:06.905Z,-3.32
2022-12-15T08:03:36.003Z,-3.46
2022-12-15T08:06:06.215Z,-3.58
2022-12-15T08:08:35.739Z,-3.54
2022-12-15T08:11:08.518Z,-3.69
2022-12-15T08:16:22.803Z,-3.43
2022-12-15T08:18:49.415Z,-3.48
2022-12-15T08:21:16.194Z,-3.47
2022-12-15T08:23:43.070Z,-3.50
2022-12-15T08:26:15.165Z,-3.63
2022-12-15T08:28:42.927Z,-3.60
2022-12-15T08:31:12.380Z,-3.69
2022-12-15T08:33:39.811Z,-3.77
2022-12-15T08:36:09.261Z,-3.70
2022-12-15T08:38:38.781Z,-3.67
2022-12-15T08:41:13.128Z,-3.77
2022-12-15T08:43:47.508Z,-3.85
2022-12-15T08:46:20.181Z,-3.68
2022-12-15T08:48:49.910Z,-3.62
2022-12-15T08:51:17.507Z,-3.61
2022-12-15T08:53:44.329Z,-3.53
2022-12-15T08:56:15.752Z,-3.73
2022-12-15T08:58:42.987Z,-3.73
2022-12-15T09:01:22.473Z,-3.74
2022-12-15T09:03:51.635Z,-3.76
2022-12-15T09:06:20.784Z,-3.57
2022-12-15T09:08:50.150Z,-3.54
2022-12-15T09:11:17.703Z,-3.46
2022-12-15T09:13:44.619Z,-3.38
2022-12-15T09:16:14.784Z,-3.28
2022-12-15T09:18:46.621Z,-3.27
2022-12-15T09:21:14.198Z,-3.14
2022-12-15T09:23:40.817Z,-3.26
2022-12-15T09:26:14.524Z,-3.29
2022-12-15T09:28:43.188Z,-3.27
2022-12-15T09:31:17.980Z,-3.10
2022-12-15T09:33:44.896Z,-3.13
2022-12-15T09:36:13.179Z,-3.26
2022-12-15T09:38:41.994Z,-3.09
2022-12-15T09:41:10.054Z,-3.14
2022-12-15T09:43:46.712Z,-3.13
2022-12-15T09:46:21.362Z,-3.12
2022-12-15T09:48:51.279Z,-3.05
2022-12-15T09:51:19.297Z,-3.02
2022-12-15T09:53:55.571Z,-2.88
2022-12-15T09:56:32.673Z,-2.84
2022-12-15T09:59:38.101Z,-2.79
2022-12-15T10:02:38.792Z,-2.83
2022-12-15T10:05:16.456Z,-2.86
2022-12-15T10:07:46.341Z,-2.87
2022-12-15T10:10:19.677Z,-2.84
2022-12-15T10:12:57.657Z,-2.88
2022-12-15T10:15:33.646Z,-2.87
2022-12-15T10:18:12.944Z,-3.04
2022-12-15T10:20:39.848Z,-3.22
2022-12-15T10:23:13.182Z,-3.18
2022-12-15T10:25:43.324Z,-3.21
2022-12-15T10:28:15.927Z,-3.12
2022-12-15T10:31:25.319Z,-3.06
2022-12-15T10:34:01.916Z,-2.95
2022-12-15T10:36:29.447Z,-2.88
2022-12-15T10:38:55.921Z,-2.89
2022-12-15T10:41:25.905Z,-2.88
2022-12-15T10:43:54.099Z,-2.90
2022-12-15T10:46:24.344Z,-2.92
2022-12-15T10:48:54.629Z,-2.97
2022-12-15T10:51:32.726Z,-2.96
2022-12-15T10:54:01.937Z,-2.88
2022-12-15T10:56:33.560Z,-2.88
2022-12-15T10:59:22.310Z,-3.01
2022-12-15T11:01:49.394Z,-3.01
2022-12-15T11:04:30.044Z,-2.96
2022-12-15T11:07:01.957Z,-2.92
2022-12-15T11:09:37.261Z,-2.86
2022-12-15T11:12:37.227Z,-2.77
2022-12-15T11:15:23.810Z,-2.71
2022-12-15T11:18:08.707Z,-2.85
2022-12-15T11:20:40.167Z,-2.63
2022-12-15T11:23:19.323Z,-2.64
2022-12-15T11:25:55.462Z,-2.52
2022-12-15T11:28:28.633Z,-2.47
2022-12-15T11:31:13.043Z,-2.55
2022-12-15T11:33:40.006Z,-2.41
2022-12-15T11:36:37.393Z,-2.44
2022-12-15T11:39:16.902Z,-2.50
2022-12-15T11:42:08.054Z,-2.67
2022-12-15T11:44:48.998Z,-2.47
2022-12-15T11:47:40.847Z,-2.48
2022-12-15T11:50:26.403Z,-2.47
2022-12-15T11:53:30.764Z,-2.37
2022-12-15T11:56:24.714Z,-2.34
2022-12-15T11:59:24.471Z,-2.30
2022-12-15T12:02:10.085Z,-2.24
2022-12-15T12:04:50.879Z,-2.27
2022-12-15T12:07:27.225Z,-2.46
2022-12-15T12:10:05.998Z,-2.39
2022-12-15T12:12:43.430Z,-2.54
2022-12-15T12:15:12.802Z,-2.54
2022-12-15T12:17:50.775Z,-2.62
2022-12-15T12:20:24.964Z,-2.74
2022-12-15T12:23:02.364Z,-2.94
2022-12-15T12:25:33.661Z,-2.87
2022-12-15T12:28:14.241Z,-2.73
2022-12-15T12:33:49.287Z,-2.42
2022-12-15T12:36:16.775Z,-2.35
2022-12-15T12:38:56.615Z,-2.50
2022-12-15T12:41:35.713Z,-2.57
2022-12-15T12:44:32.412Z,-2.66
2022-12-15T12:47:06.399Z,-2.74
2022-12-15T12:49:40.862Z,-2.76
2022-12-15T12:52:22.673Z,-2.72
2022-12-15T12:54:57.342Z,-2.92
2022-12-15T12:57:33.226Z,-2.76
2022-12-15T13:00:06.117Z,-2.73
2022-12-15T13:02:35.296Z,-2.71
2022-12-15T13:05:22.645Z,-2.81
2022-12-15T13:08:16.916Z,-2.83
2022-12-15T13:10:45.967Z,-2.83
2022-12-15T13:13:29.616Z,-2.85
2022-12-15T13:16:02.425Z,-2.97
2022-12-15T13:18:29.708Z,-3.00
2022-12-15T13:20:57.977Z,-3.07
2022-12-15T13:23:25.469Z,-3.09
2022-12-15T13:25:59.130Z,-3.11
2022-12-15T13:28:40.570Z,-3.09
2022-12-15T13:31:16.740Z,-3.07
2022-12-15T13:33:50.927Z,-3.32
2022-12-15T13:36:42.333Z,-3.06
2022-12-15T13:39:14.875Z,-3.09
2022-12-15T13:44:55.388Z,-3.11
2022-12-15T13:47:27.319Z,-3.04
2022-12-15T13:50:14.703Z,-3.21
2022-12-15T13:53:18.752Z,-3.16
2022-12-15T13:55:52.612Z,-3.27
2022-12-15T13:58:21.587Z,-3.26
2022-12-15T14:00:56.553Z,-3.24
2022-12-15T14:03:24.147Z,-3.25
2022-12-15T14:05:54.508Z,-3.34
2022-12-15T14:08:23.334Z,-3.38
2022-12-15T14:10:58.252Z,-3.41
2022-12-15T14:13:32.193Z,-3.59
2022-12-15T14:16:04.948Z,-3.50
2022-12-15T14:18:34.625Z,-3.53
2022-12-15T14:21:05.171Z,-3.47
2022-12-15T14:24:10.938Z,-3.50
2022-12-15T14:26:31.875Z,-3.60
2022-12-15T14:29:05.046Z,-3.50
2022-12-15T14:31:32.106Z,-3.42
2022-12-15T14:34:25.105Z,-3.43
2022-12-15T14:36:53.029Z,-3.56
2022-12-15T14:39:26.190Z,-3.48
2022-12-15T14:41:54.667Z,-3.48
2022-12-15T14:47:26.918Z,-3.49
2022-12-15T14:49:55.856Z,-3.63
2022-12-15T14:52:29.289Z,-3.38
2022-12-15T14:55:02.026Z,-3.40
2022-12-15T14:57:41.162Z,-3.46
2022-12-15T15:00:30.749Z,-3.50
2022-12-15T15:03:07.112Z,-2.59
2022-12-15T15:03:14.461Z,-3.44
2022-12-15T15:05:59.954Z,-3.66
2022-12-15T15:08:28.986Z,-3.63
2022-12-15T15:10:59.414Z,-3.66
2022-12-15T15:13:39.572Z,-3.67
2022-12-15T15:16:07.735Z,-3.64
2022-12-15T15:18:34.751Z,-3.64
2022-12-15T15:21:15.299Z,-3.68
2022-12-15T15:23:41.886Z,-3.72
2022-12-15T15:26:15.154Z,-4.05
2022-12-15T15:28:43.524Z,-3.76
2022-12-15T15:31:25.444Z,-3.77
2022-12-15T15:33:52.809Z,-3.95
2022-12-15T15:36:19.341Z,-3.84
2022-12-15T15:38:46.827Z,-3.84
2022-12-15T15:41:19.483Z,-3.79
2022-12-15T15:43:47.235Z,-4.01
2022-12-15T15:46:20.855Z,-3.95
2022-12-15T15:49:09.933Z,-3.95
2022-12-15T15:51:37.740Z,-4.11
2022-12-15T15:54:08.227Z,-4.12
2022-12-15T15:56:35.027Z,-4.21
2022-12-15T15:59:13.700Z,-4.02
2022-12-15T16:01:40.873Z,-4.02
2022-12-15T16:04:07.507Z,-4.16
2022-12-15T16:06:34.783Z,-4.18
2022-12-15T16:09:02.724Z,-4.05
2022-12-15T16:11:32.585Z,-4.18
2022-12-15T16:13:59.195Z,-4.06
2022-12-15T16:16:33.009Z,-4.07
2022-12-15T16:18:59.957Z,-4.09
2022-12-15T16:21:28.164Z,-4.13
2022-12-15T16:23:56.110Z,-4.10
2022-12-15T16:26:32.615Z,-4.12
2022-12-15T16:28:59.615Z,-4.15
2022-12-15T16:31:37.327Z,-4.11
2022-12-15T16:34:07.639Z,-4.10
2022-12-15T16:36:35.098Z,-4.30
2022-12-15T16:39:01.955Z,-4.11
2022-12-15T16:41:28.470Z,-4.14
2022-12-15T16:43:55.042Z,-4.26
2022-12-15T16:46:21.910Z,-4.16
2022-12-15T16:48:48.832Z,-4.14
2022-12-15T16:51:24.297Z,-4.18
2022-12-15T16:53:50.796Z,-4.19
2022-12-15T16:56:17.297Z,-4.18
2022-12-15T16:58:48.502Z,-4.34
2022-12-15T17:01:16.111Z,-4.20
2022-12-15T17:03:43.113Z,-4.17
2022-12-15T17:06:15.118Z,-4.21
2022-12-15T17:08:55.093Z,-4.20
2022-12-15T17:11:24.382Z,-4.20
2022-12-15T17:13:55.820Z,-4.21
2022-12-15T17:16:24.085Z,-4.23
2022-12-15T17:18:51.638Z,-4.22
2022-12-15T17:21:54.072Z,-4.17
2022-12-15T17:24:22.317Z,-4.17
2022-12-15T17:26:49.651Z,-4.16
2022-12-15T17:29:21.810Z,-4.17
2022-12-15T17:31:48.530Z,-4.13
2022-12-15T17:34:30.504Z,-4.09
2022-12-15T17:36:59.327Z,-4.06
2022-12-15T17:39:26.755Z,-4.06
2022-12-15T17:42:02.645Z,-4.07
2022-12-15T17:44:34.314Z,-4.06
2022-12-15T17:47:02.655Z,-4.03
2022-12-15T17:49:35.060Z,-4.18
2022-12-15T17:52:05.280Z,-4.06
2022-12-15T17:54:32.245Z,-4.03
2022-12-15T17:56:59.890Z,-4.05
2022-12-15T17:59:26.443Z,-4.11
2022-12-15T18:01:56.927Z,-4.09
2022-12-15T18:04:23.828Z,-4.09
2022-12-15T18:06:51.993Z,-4.08
2022-12-15T18:09:26.929Z,-4.09
2022-12-15T18:11:53.638Z,-4.07
2022-12-15T18:14:22.882Z,-4.03
2022-12-15T18:16:49.616Z,-4.12
2022-12-15T18:19:16.170Z,-4.04
2022-12-15T18:21:42.893Z,-4.07
2022-12-15T18:24:15.162Z,-4.13
2022-12-15T18:26:41.728Z,-4.15
2022-12-15T18:29:19.889Z,-4.17
2022-12-15T18:31:48.554Z,-4.22
2022-12-15T18:34:21.244Z,-4.28
2022-12-15T18:36:48.058Z,-4.33
2022-12-15T18:39:23.188Z,-4.35
2022-12-15T18:41:51.490Z,-4.56
2022-12-15T18:44:26.712Z,-4.42
2022-12-15T18:46:55.118Z,-4.39
2022-12-15T18:49:23.063Z,-4.40
2022-12-15T18:51:49.827Z,-4.43
2022-12-15T18:54:21.193Z,-4.49
2022-12-15T18:56:48.315Z,-4.47
2022-12-15T18:59:17.132Z,-4.47
2022-12-15T19:01:47.531Z,-4.60
2022-12-15T19:04:14.767Z,-4.53
2022-12-15T19:06:41.802Z,-4.50
2022-12-15T19:09:15.595Z,-4.49
2022-12-15T19:12:03.656Z,-4.56
2022-12-15T19:14:42.579Z,-4.54
2022-12-15T19:17:30.551Z,-4.70
2022-12-15T19:20:15.863Z,-4.43
2022-12-15T19:22:44.199Z,-4.41
2022-12-15T19:25:26.509Z,-4.43
2022-12-15T19:28:00.455Z,-4.52
2022-12-15T19:30:41.767Z,-4.54
2022-12-15T19:33:08.877Z,-4.59
2022-12-15T19:35:36.931Z,-4.76
2022-12-15T19:38:04.838Z,-4.63
2022-12-15T19:40:34.800Z,-4.68
2022-12-15T19:43:02.724Z,-4.70
2022-12-15T19:45:31.206Z,-4.73
2022-12-15T19:47:58.216Z,-4.74
2022-12-15T19:50:28.083Z,-4.77
2022-12-15T19:52:58.622Z,-4.76
2022-12-15T19:55:32.659Z,-5.04
2022-12-15T19:58:00.116Z,-4.87
2022-12-15T20:00:27.304Z,-4.70
2022-12-15T20:02:55.226Z,-4.70
2022-12-15T20:05:23.667Z,-4.68
2022-12-15T20:07:52.324Z,-4.87
2022-12-15T20:10:31.316Z,-4.67
2022-12-15T20:12:58.689Z,-4.83
2022-12-15T20:15:28.359Z,-4.63
2022-12-15T20:17:57.260Z,-4.65
2022-12-15T20:20:26.824Z,-4.55
2022-12-15T20:22:58.821Z,-4.59
2022-12-15T20:25:28.010Z,-4.57
2022-12-15T20:27:54.731Z,-4.57
2022-12-15T20:30:32.527Z,-4.53
2022-12-15T20:33:00.394Z,-4.50
2022-12-15T20:35:27.004Z,-4.52
2022-12-15T20:37:53.559Z,-4.53
2022-12-15T20:40:24.026Z,-4.54
2022-12-15T20:42:51.559Z,-4.49
2022-12-15T20:45:21.181Z,-4.64
2022-12-15T20:47:49.904Z,-4.37
2022-12-15T20:50:36.342Z,-4.34
2022-12-15T20:53:04.031Z,-4.26
2022-12-15T20:55:32.108Z,-4.27
2022-12-15T20:57:58.596Z,-4.25
2022-12-15T21:00:25.131Z,-4.35
2022-12-15T21:02:54.900Z,-4.15
2022-12-15T21:05:24.836Z,-4.14
2022-12-15T21:07:52.519Z,-4.15
2022-12-15T21:10:20.867Z,-4.14
2022-12-15T21:12:49.371Z,-4.15
2022-12-15T21:15:21.750Z,-4.08
2022-12-15T21:18:11.291Z,-4.07
2022-12-15T21:20:41.579Z,-4.04
2022-12-15T21:23:28.924Z,-4.09
2022-12-15T21:25:56.797Z,-4.04
2022-12-15T21:28:24.400Z,-4.01
2022-12-15T21:30:51.673Z,-4.01
2022-12-15T21:33:18.330Z,-4.07
2022-12-15T21:35:47.409Z,-4.06
2022-12-15T21:38:36.221Z,-4.06
2022-12-15T21:41:06.091Z,-4.04
2022-12-15T21:43:35.378Z,-4.21
2022-12-15T21:46:12.259Z,-4.07
2022-12-15T21:48:57.210Z,-4.03
2022-12-15T21:51:25.098Z,-4.01
2022-12-15T21:53:52.079Z,-3.99
2022-12-15T21:56:20.984Z,-3.98
2022-12-15T21:58:52.603Z,-4.01
2022-12-15T22:01:29.553Z,-4.06
2022-12-15T22:03:59.540Z,-4.01
2022-12-15T22:06:28.890Z,-3.91
2022-12-15T22:09:00.173Z,-3.92
2022-12-15T22:11:29.483Z,-4.01
2022-12-15T22:13:57.904Z,-3.92
2022-12-15T22:16:25.112Z,-4.10
2022-12-15T22:18:54.759Z,-3.92
2022-12-15T22:21:22.412Z,-3.85
2022-12-15T22:23:49.017Z,-3.83
2022-12-15T22:26:24.625Z,-3.85
2022-12-15T22:28:51.709Z,-3.88
2022-12-15T22:31:18.464Z,-3.90
2022-12-15T22:33:45.117Z,-3.92
2022-12-15T22:36:11.897Z,-3.95
2022-12-15T22:38:38.510Z,-3.96
2022-12-15T22:41:06.749Z,-4.01
2022-12-15T22:43:39.323Z,-4.00
2022-12-15T22:46:09.381Z,-3.99
2022-12-15T22:48:38.765Z,-4.04
2022-12-15T22:51:06.209Z,-3.98
2022-12-15T22:53:35.195Z,-3.96
2022-12-15T22:56:24.327Z,-4.03
2022-12-15T22:58:55.958Z,-4.09
2022-12-15T23:01:22.648Z,-4.10
2022-12-15T23:03:53.092Z,-4.20
2022-12-15T23:06:26.107Z,-4.20
2022-12-15T23:08:55.839Z,-4.18
2022-12-15T23:11:39.018Z,-4.21
2022-12-15T23:14:11.880Z,-4.21
2022-12-15T23:16:39.397Z,-4.20
2022-12-15T23:19:23.819Z,-4.22
2022-12-15T23:21:51.576Z,-4.21
2022-12-15T23:24:18.420Z,-4.21
2022-12-15T23:26:44.925Z,-4.19
2022-12-15T23:29:11.486Z,-4.26
2022-12-15T23:31:38.122Z,-4.26
2022-12-15T23:34:05.521Z,-4.24
2022-12-15T23:36:32.100Z,-4.23
2022-12-15T23:38:58.636Z,-4.28
2022-12-15T23:41:25.168Z,-4.27
2022-12-15T23:43:51.742Z,-4.21
2022-12-15T23:46:18.823Z,-4.25
2022-12-15T23:48:46.037Z,-4.24
2022-12-15T23:51:18.088Z,-4.43
2022-12-15T23:53:46.127Z,-4.22
2022-12-15T23:56:22.194Z,-4.21
2022-12-15T23:58:59.320Z,-4.22
